EW1470 Fairford UK current weather conditions

sailwx.info

Wind from 037 at 3 knots gusting 6

Air temperature 8.3° C
Dewpoint 2.8° C

Last reported at 2019-Dec-11 21:46 UTC.
Time now 2019-Dec-11 22:20 UTC

Location: N 43°44' E 007°23'.
View on Google Maps.

See reports from other nearby stations

  
Tides and Currents Weather Stations Pressure Air Temp Water Temp Dewpoint Dewpoint Depression Visibility Wind Speed Wind Dir Waves Ship Positions
date/time (UTC)wind fromknots sea level pressurealtimeterstation pressurevisibilityair tempwater tempwave heightnotes
2019-Dec-11 21:46 037 3 gusting 6 8.3
2019-Dec-11 21:31 026 2 gusting 6 8.3
2019-Dec-11 21:16 023 3 gusting 6 8.3
2019-Dec-11 21:00 347 4 gusting 6 7.8
2019-Dec-11 20:45 012 2 gusting 3 7.8
2019-Dec-11 20:30 343 3 gusting 4 7.8
2019-Dec-11 20:15 340 2 gusting 7 7.8
2019-Dec-11 20:00 070 3 gusting 11 7.2
2019-Dec-11 19:45 276 0 gusting 9 7.2
2019-Dec-11 19:15 091 3 gusting 7 6.7
2019-Dec-11 19:00 072 0 gusting 3 6.7
2019-Dec-11 18:45 016 0 gusting 3 7.2
2019-Dec-11 18:34 271 0 gusting 8 7.2
2019-Dec-11 18:19 224 3 gusting 9 7.2
2019-Dec-11 18:02 028 6.7
2019-Dec-11 17:47 316 0 gusting 6 7.2
2019-Dec-11 17:31 085 1 gusting 7 7.2
2019-Dec-11 17:16 106 3 gusting 8 7.8
2019-Dec-11 17:01 236 1 gusting 6 8.3
2019-Dec-11 16:46 218 6 gusting 13 8.9
2019-Dec-11 16:32 274 1 gusting 4 8.3
2019-Dec-11 16:16 054 0 gusting 6 8.3
2019-Dec-11 16:01 273 1 gusting 7 8.9
2019-Dec-11 15:45 261 1 gusting 5 8.9
2019-Dec-11 15:31 255 1 gusting 8 8.9
2019-Dec-11 15:15 226 1 gusting 6 8.9
2019-Dec-11 15:01 295 2 gusting 6 8.9
2019-Dec-11 14:45 252 3 gusting 6 8.9
2019-Dec-11 14:30 238 2 gusting 5 8.9
2019-Dec-11 14:15 226 9.4
2019-Dec-11 14:00 174 9.4
2019-Dec-11 13:45 204 0 gusting 4 9.4
2019-Dec-11 13:30 188 0 gusting 3 9.4
2019-Dec-11 13:15 166 0 gusting 4 9.4
2019-Dec-11 13:00 273 1 gusting 3 9.4
2019-Dec-11 12:45 269 0 gusting 4 9.4
2019-Dec-11 12:33 224 0 gusting 3 10.0
2019-Dec-11 12:17 198 0 gusting 4 10.0
2019-Dec-11 12:02 225 10.0
2019-Dec-11 11:46 212 10.0
2019-Dec-11 11:33 243 0 gusting 5 10.0
2019-Dec-11 11:17 225 0 gusting 3 10.0
2019-Dec-11 11:03 176 10.0
2019-Dec-11 10:49 246 0 gusting 3 10.0
2019-Dec-11 10:32 261 1 gusting 4 10.6
2019-Dec-11 10:16 266 0 gusting 6 10.6
2019-Dec-11 10:02 239 10.6
2019-Dec-11 09:46 208 0 gusting 5 10.6
2019-Dec-11 09:31 159 0 gusting 5 10.6
2019-Dec-11 09:16 103 1 gusting 5 11.1
2019-Dec-11 09:02 103 11.1
2019-Dec-11 08:46 180 0 gusting 5 11.7
2019-Dec-11 08:32 195 0 gusting 4 11.7
2019-Dec-11 08:16 132 11.7
2019-Dec-11 08:01 148 1 gusting 5 11.1
2019-Dec-11 07:46 198 1 gusting 6 10.6
2019-Dec-11 07:30 205 3 gusting 6 10.0
2019-Dec-11 07:17 270 3 gusting 6 10.0
2019-Dec-11 07:00
2019-Dec-11 06:46
2019-Dec-11 06:30
2019-Dec-11 06:16
2019-Dec-11 06:02
2019-Dec-11 05:48
2019-Dec-11 05:32
2019-Dec-11 05:16
2019-Dec-11 05:01
2019-Dec-11 04:46
2019-Dec-11 04:32
2019-Dec-11 04:18
2019-Dec-11 04:00
2019-Dec-11 03:46
2019-Dec-11 03:31
2019-Dec-11 03:15
2019-Dec-11 03:00
2019-Dec-11 02:48
2019-Dec-11 02:32
2019-Dec-11 02:19 300 1 gusting 5 8.9
2019-Dec-11 02:03 274 2 gusting 5 9.4
2019-Dec-11 01:46 271 1 gusting 3 8.9
2019-Dec-11 01:33 333 1 gusting 2 9.4
2019-Dec-11 01:18 335 1 gusting 2 8.9
2019-Dec-11 01:02 318 0 gusting 2 8.9
2019-Dec-11 00:48 305 0 gusting 1 8.9
2019-Dec-11 00:32 318 0 gusting 2 8.9
2019-Dec-11 00:16 293 0 gusting 1 8.9
2019-Dec-11 00:03 345 0 gusting 2 8.9
2019-Dec-10 23:46 301 10.0
2019-Dec-10 23:31 277 10.0
2019-Dec-10 23:16 336 10.0
2019-Dec-10 23:01 012 2 gusting 3 10.0
2019-Dec-10 22:46 015 3 gusting 6 10.6
2019-Dec-10 22:31 030 4 gusting 6 10.0
2019-Dec-10 22:16 019 5 gusting 6 10.0
2019-Dec-10 22:00 001 5 gusting 6 10.0
2019-Dec-10 21:46 023 2 gusting 5 10.0
2019-Dec-10 21:30 271 10.0
2019-Dec-10 21:15 270 1 gusting 3 10.0
2019-Dec-10 21:00 285 10.0
2019-Dec-10 20:45 311 0 gusting 3 10.0
2019-Dec-10 20:30 271 0 gusting 6 10.6
2019-Dec-10 20:15 285 1 gusting 4 10.6
2019-Dec-10 20:00 300 1 gusting 4 10.6
2019-Dec-10 19:45 328 1 gusting 4 10.6
2019-Dec-10 19:32 297 1 gusting 4 10.6
2019-Dec-10 19:17 297 1 gusting 6 10.6
2019-Dec-10 19:04 297 1 gusting 5 10.6
2019-Dec-10 18:48 285 0 gusting 6 10.6
2019-Dec-10 18:32 271 2 gusting 6 10.6
2019-Dec-10 18:19 273 3 gusting 9 11.1
2019-Dec-10 18:06 255 3 gusting 8 11.1
2019-Dec-10 17:47 255 2 gusting 7 11.1
2019-Dec-10 17:35 266 3 gusting 7 11.1
2019-Dec-10 17:17 262 2 gusting 6 11.1
2019-Dec-10 17:04 267 3 gusting 6 11.1
2019-Dec-10 16:48 269 2 gusting 6 11.1
2019-Dec-10 16:33 225 4 gusting 6 11.1
2019-Dec-10 16:17 257 1 gusting 6 11.1
2019-Dec-10 16:01 264 2 gusting 3 12.2
2019-Dec-10 15:46 016 0 gusting 2 13.3
2019-Dec-10 15:32 218 13.9
2019-Dec-10 15:17 248 15.0
2019-Dec-10 15:01 145 1 gusting 5 14.4
2019-Dec-10 14:46 262 15.6
2019-Dec-10 14:31 001 0 gusting 2 16.1
2019-Dec-10 14:16 167 16.1
2019-Dec-10 14:01 333 0 gusting 4 16.1
2019-Dec-10 13:46 124 2 gusting 4 15.6
2019-Dec-10 13:31 146 0 gusting 4 15.6
2019-Dec-10 13:15 225 0 gusting 3 15.6
2019-Dec-10 13:00 143 1 gusting 6 15.6
2019-Dec-10 12:46 124 2 gusting 5 15.6
2019-Dec-10 12:30 146 3 gusting 5 16.1
2019-Dec-10 12:17 102 2 gusting 5 16.1
2019-Dec-10 12:01 088 2 gusting 8 16.1
2019-Dec-10 11:46 149 2 gusting 5 16.7
2019-Dec-10 11:31 120 4 gusting 7 16.1
2019-Dec-10 11:15 062 5 gusting 7 16.1
2019-Dec-10 11:01 083 4 gusting 7 16.1
2019-Dec-10 10:45 058 5 gusting 8 15.6
2019-Dec-10 10:31 089 4 gusting 8 15.6
2019-Dec-10 10:15 062 3 gusting 9 16.1
2019-Dec-10 10:00 084 3 gusting 10 15.0
2019-Dec-10 09:45 056 2 gusting 6 15.0
2019-Dec-10 09:30 030 2 gusting 4 15.0
2019-Dec-10 09:15 087 0 gusting 6 15.0
2019-Dec-10 09:00 053 0 gusting 6 13.9
2019-Dec-10 08:48 174 13.9
2019-Dec-10 08:34 049 2 gusting 5 13.3
2019-Dec-10 08:16 200 2 gusting 7 12.2
2019-Dec-10 08:01 226 3 gusting 7 12.2
2019-Dec-10 07:46 263 5 gusting 9 12.2
2019-Dec-10 07:32 298 3 gusting 6 12.2
2019-Dec-10 07:16 294 3 gusting 8 11.7
2019-Dec-10 07:01
2019-Dec-10 06:46
2019-Dec-10 06:31
2019-Dec-10 06:16
2019-Dec-10 06:00
2019-Dec-10 05:45
2019-Dec-10 05:30
2019-Dec-10 05:15
2019-Dec-10 05:00
2019-Dec-10 04:48
2019-Dec-10 04:31
2019-Dec-10 04:17
2019-Dec-10 04:01
2019-Dec-10 03:47
2019-Dec-10 03:31
2019-Dec-10 03:16
2019-Dec-10 03:01
2019-Dec-10 02:46
2019-Dec-10 02:30
2019-Dec-10 02:15 267 2 gusting 9 10.6
2019-Dec-10 02:00 264 3 gusting 8 10.6
2019-Dec-10 01:45 288 2 gusting 6 10.6
2019-Dec-10 01:30 330 2 gusting 6 10.6
2019-Dec-10 01:15 270 2 gusting 6 10.6
2019-Dec-10 01:02 329 1 gusting 3 10.0
2019-Dec-10 00:47 303 0 gusting 1 10.0
2019-Dec-10 00:31 303 10.0
2019-Dec-10 00:18 281 10.0
2019-Dec-10 00:03 332 1 gusting 5 10.0
2019-Dec-09 23:46 320 1 gusting 2 10.0
2019-Dec-09 23:31 013 2 gusting 5 10.6
2019-Dec-09 23:16 354 3 gusting 6 10.6
2019-Dec-09 23:00 347 6 gusting 6 10.0
2019-Dec-09 22:46 354 6 gusting 12 10.0
2019-Dec-09 22:31 026 5 gusting 8 10.0
2019-Dec-09 22:16 034 7 gusting 14 10.0
2019-Dec-09 22:01 309 1 gusting 6 9.4